sensor_id;sensor_type;location;lat;lon;timestamp;P1;durP1;ratioP1;P2;durP2;ratioP2
64061;SDS011;50308;47.438;-1.528;2023-07-31T00:00:05;10.05;;;3.58;;
64061;SDS011;50308;47.438;-1.528;2023-07-31T00:02:33;12.35;;;4.18;;
64061;SDS011;50308;47.438;-1.528;2023-07-31T00:04:59;9.82;;;3.78;;
64061;SDS011;50308;47.438;-1.528;2023-07-31T00:07:26;9.77;;;3.33;;
64061;SDS011;50308;47.438;-1.528;2023-07-31T00:09:52;11.43;;;4.00;;
64061;SDS011;50308;47.438;-1.528;2023-07-31T00:12:18;8.88;;;4.20;;
64061;SDS011;50308;47.438;-1.528;2023-07-31T00:14:45;14.18;;;4.78;;
64061;SDS011;50308;47.438;-1.528;2023-07-31T00:17:11;9.32;;;3.95;;
64061;SDS011;50308;47.438;-1.528;2023-07-31T00:19:36;10.82;;;4.07;;
64061;SDS011;50308;47.438;-1.528;2023-07-31T00:22:02;8.80;;;4.45;;
64061;SDS011;50308;47.438;-1.528;2023-07-31T00:24:28;10.93;;;4.40;;
64061;SDS011;50308;47.438;-1.528;2023-07-31T00:26:54;10.55;;;3.72;;
64061;SDS011;50308;47.438;-1.528;2023-07-31T00:29:19;11.35;;;4.10;;
64061;SDS011;50308;47.438;-1.528;2023-07-31T00:31:45;10.43;;;3.78;;
64061;SDS011;50308;47.438;-1.528;2023-07-31T00:34:10;9.25;;;3.78;;
64061;SDS011;50308;47.438;-1.528;2023-07-31T00:36:36;10.07;;;3.70;;
64061;SDS011;50308;47.438;-1.528;2023-07-31T00:39:02;10.52;;;4.18;;
64061;SDS011;50308;47.438;-1.528;2023-07-31T00:41:27;9.35;;;4.03;;
64061;SDS011;50308;47.438;-1.528;2023-07-31T00:43:53;8.98;;;4.00;;
64061;SDS011;50308;47.438;-1.528;2023-07-31T00:46:19;10.43;;;4.53;;
64061;SDS011;50308;47.438;-1.528;2023-07-31T00:48:45;6.60;;;3.88;;
64061;SDS011;50308;47.438;-1.528;2023-07-31T00:51:11;9.25;;;4.18;;
64061;SDS011;50308;47.438;-1.528;2023-07-31T00:53:37;9.95;;;4.25;;
64061;SDS011;50308;47.438;-1.528;2023-07-31T00:56:03;9.93;;;4.13;;
64061;SDS011;50308;47.438;-1.528;2023-07-31T00:58:29;10.10;;;4.60;;
64061;SDS011;50308;47.438;-1.528;2023-07-31T01:00:55;8.80;;;4.07;;
64061;SDS011;50308;47.438;-1.528;2023-07-31T01:03:21;9.40;;;3.95;;
64061;SDS011;50308;47.438;-1.528;2023-07-31T01:05:54;9.05;;;3.95;;
64061;SDS011;50308;47.438;-1.528;2023-07-31T01:08:47;9.40;;;4.32;;
64061;SDS011;50308;47.438;-1.528;2023-07-31T01:11:33;9.35;;;3.88;;
64061;SDS011;50308;47.438;-1.528;2023-07-31T01:14:01;12.75;;;4.45;;
64061;SDS011;50308;47.438;-1.528;2023-07-31T01:16:27;8.55;;;3.70;;
64061;SDS011;50308;47.438;-1.528;2023-07-31T01:18:52;9.57;;;4.43;;
64061;SDS011;50308;47.438;-1.528;2023-07-31T01:24:28;11.77;;;4.50;;
64061;SDS011;50308;47.438;-1.528;2023-07-31T01:27:09;8.02;;;3.97;;
64061;SDS011;50308;47.438;-1.528;2023-07-31T01:29:55;9.98;;;4.05;;
64061;SDS011;50308;47.438;-1.528;2023-07-31T01:32:25;11.80;;;4.25;;
64061;SDS011;50308;47.438;-1.528;2023-07-31T01:34:53;10.90;;;4.10;;
64061;SDS011;50308;47.438;-1.528;2023-07-31T01:37:19;11.35;;;4.53;;
64061;SDS011;50308;47.438;-1.528;2023-07-31T01:39:45;13.10;;;4.18;;
64061;SDS011;50308;47.438;-1.528;2023-07-31T01:42:11;9.93;;;3.88;;
64061;SDS011;50308;47.438;-1.528;2023-07-31T01:44:36;8.68;;;3.75;;
64061;SDS011;50308;47.438;-1.528;2023-07-31T01:47:02;9.13;;;4.70;;
64061;SDS011;50308;47.438;-1.528;2023-07-31T01:49:28;10.02;;;4.82;;
64061;SDS011;50308;47.438;-1.528;2023-07-31T01:51:53;10.98;;;4.72;;
64061;SDS011;50308;47.438;-1.528;2023-07-31T01:54:19;14.68;;;4.75;;
64061;SDS011;50308;47.438;-1.528;2023-07-31T01:56:45;10.57;;;4.53;;
64061;SDS011;50308;47.438;-1.528;2023-07-31T01:59:10;9.50;;;4.43;;
64061;SDS011;50308;47.438;-1.528;2023-07-31T02:01:36;11.23;;;4.32;;
64061;SDS011;50308;47.438;-1.528;2023-07-31T02:04:01;9.38;;;4.00;;
64061;SDS011;50308;47.438;-1.528;2023-07-31T02:06:27;14.43;;;4.97;;
64061;SDS011;50308;47.438;-1.528;2023-07-31T02:08:54;11.23;;;4.57;;
64061;SDS011;50308;47.438;-1.528;2023-07-31T02:11:19;10.38;;;4.82;;
64061;SDS011;50308;47.438;-1.528;2023-07-31T02:13:45;11.57;;;4.47;;
64061;SDS011;50308;47.438;-1.528;2023-07-31T02:16:10;12.00;;;5.32;;
64061;SDS011;50308;47.438;-1.528;2023-07-31T02:18:36;9.38;;;4.50;;
64061;SDS011;50308;47.438;-1.528;2023-07-31T02:21:02;8.70;;;4.55;;
64061;SDS011;50308;47.438;-1.528;2023-07-31T02:23:27;12.23;;;4.40;;
64061;SDS011;50308;47.438;-1.528;2023-07-31T02:25:53;9.98;;;4.22;;
64061;SDS011;50308;47.438;-1.528;2023-07-31T02:28:19;12.13;;;4.50;;
64061;SDS011;50308;47.438;-1.528;2023-07-31T02:30:45;10.45;;;4.00;;
64061;SDS011;50308;47.438;-1.528;2023-07-31T02:33:14;12.20;;;4.20;;
64061;SDS011;50308;47.438;-1.528;2023-07-31T02:35:40;8.65;;;4.38;;
64061;SDS011;50308;47.438;-1.528;2023-07-31T02:38:05;9.50;;;4.32;;
64061;SDS011;50308;47.438;-1.528;2023-07-31T02:40:31;8.77;;;4.07;;
64061;SDS011;50308;47.438;-1.528;2023-07-31T02:42:57;12.93;;;4.50;;
64061;SDS011;50308;47.438;-1.528;2023-07-31T02:45:22;10.98;;;4.85;;
64061;SDS011;50308;47.438;-1.528;2023-07-31T02:47:48;9.90;;;4.20;;
64061;SDS011;50308;47.438;-1.528;2023-07-31T02:50:14;8.80;;;4.65;;
64061;SDS011;50308;47.438;-1.528;2023-07-31T02:52:39;10.98;;;4.15;;
64061;SDS011;50308;47.438;-1.528;2023-07-31T02:55:05;11.25;;;4.00;;
64061;SDS011;50308;47.438;-1.528;2023-07-31T02:57:31;11.38;;;4.28;;
64061;SDS011;50308;47.438;-1.528;2023-07-31T02:59:57;9.88;;;4.28;;
64061;SDS011;50308;47.438;-1.528;2023-07-31T03:02:22;11.05;;;4.00;;
64061;SDS011;50308;47.438;-1.528;2023-07-31T03:04:48;7.80;;;4.35;;
64061;SDS011;50308;47.438;-1.528;2023-07-31T03:07:14;10.43;;;4.43;;
64061;SDS011;50308;47.438;-1.528;2023-07-31T03:09:39;10.88;;;4.72;;
64061;SDS011;50308;47.438;-1.528;2023-07-31T03:12:05;12.43;;;4.97;;
64061;SDS011;50308;47.438;-1.528;2023-07-31T03:14:31;11.45;;;4.68;;
64061;SDS011;50308;47.438;-1.528;2023-07-31T03:16:57;10.13;;;4.93;;
64061;SDS011;50308;47.438;-1.528;2023-07-31T03:19:24;11.68;;;4.63;;
64061;SDS011;50308;47.438;-1.528;2023-07-31T03:21:50;8.73;;;3.70;;
64061;SDS011;50308;47.438;-1.528;2023-07-31T03:24:15;13.00;;;4.68;;
64061;SDS011;50308;47.438;-1.528;2023-07-31T03:26:41;10.98;;;4.43;;
64061;SDS011;50308;47.438;-1.528;2023-07-31T03:29:07;12.40;;;4.47;;
64061;SDS011;50308;47.438;-1.528;2023-07-31T03:31:33;9.80;;;4.30;;
64061;SDS011;50308;47.438;-1.528;2023-07-31T03:33:59;11.85;;;4.63;;
64061;SDS011;50308;47.438;-1.528;2023-07-31T03:36:24;11.38;;;4.30;;
64061;SDS011;50308;47.438;-1.528;2023-07-31T03:38:51;14.57;;;5.30;;
64061;SDS011;50308;47.438;-1.528;2023-07-31T03:41:17;14.45;;;4.40;;
64061;SDS011;50308;47.438;-1.528;2023-07-31T03:43:43;11.75;;;4.75;;
64061;SDS011;50308;47.438;-1.528;2023-07-31T03:46:10;11.50;;;4.10;;
64061;SDS011;50308;47.438;-1.528;2023-07-31T03:48:36;9.43;;;4.05;;
64061;SDS011;50308;47.438;-1.528;2023-07-31T03:51:01;10.80;;;4.50;;
64061;SDS011;50308;47.438;-1.528;2023-07-31T03:53:27;13.98;;;4.80;;
64061;SDS011;50308;47.438;-1.528;2023-07-31T03:55:52;12.43;;;4.78;;
64061;SDS011;50308;47.438;-1.528;2023-07-31T03:58:18;10.05;;;4.43;;
64061;SDS011;50308;47.438;-1.528;2023-07-31T04:00:45;12.30;;;4.32;;
64061;SDS011;50308;47.438;-1.528;2023-07-31T04:03:10;11.40;;;4.68;;
64061;SDS011;50308;47.438;-1.528;2023-07-31T04:05:38;9.60;;;4.07;;
64061;SDS011;50308;47.438;-1.528;2023-07-31T04:08:04;11.98;;;4.30;;
64061;SDS011;50308;47.438;-1.528;2023-07-31T04:10:30;9.77;;;4.35;;
64061;SDS011;50308;47.438;-1.528;2023-07-31T04:12:58;13.27;;;4.53;;
64061;SDS011;50308;47.438;-1.528;2023-07-31T04:15:24;11.02;;;4.57;;
64061;SDS011;50308;47.438;-1.528;2023-07-31T04:17:49;9.85;;;4.82;;
64061;SDS011;50308;47.438;-1.528;2023-07-31T04:20:15;7.43;;;4.25;;
64061;SDS011;50308;47.438;-1.528;2023-07-31T04:22:41;11.75;;;4.40;;
64061;SDS011;50308;47.438;-1.528;2023-07-31T04:25:07;15.65;;;4.40;;
64061;SDS011;50308;47.438;-1.528;2023-07-31T04:27:32;12.52;;;5.30;;
64061;SDS011;50308;47.438;-1.528;2023-07-31T04:29:58;11.48;;;4.03;;
64061;SDS011;50308;47.438;-1.528;2023-07-31T04:32:24;13.90;;;4.30;;
64061;SDS011;50308;47.438;-1.528;2023-07-31T04:34:49;11.48;;;4.80;;
64061;SDS011;50308;47.438;-1.528;2023-07-31T04:37:15;10.40;;;4.57;;
64061;SDS011;50308;47.438;-1.528;2023-07-31T04:39:40;10.05;;;4.57;;
64061;SDS011;50308;47.438;-1.528;2023-07-31T04:42:06;9.77;;;4.35;;
64061;SDS011;50308;47.438;-1.528;2023-07-31T04:44:32;11.57;;;4.72;;
64061;SDS011;50308;47.438;-1.528;2023-07-31T04:46:57;12.85;;;4.25;;
64061;SDS011;50308;47.438;-1.528;2023-07-31T04:49:23;9.50;;;4.78;;
64061;SDS011;50308;47.438;-1.528;2023-07-31T04:51:49;12.15;;;4.07;;
64061;SDS011;50308;47.438;-1.528;2023-07-31T04:54:14;12.27;;;4.80;;
64061;SDS011;50308;47.438;-1.528;2023-07-31T04:56:40;10.35;;;4.40;;
64061;SDS011;50308;47.438;-1.528;2023-07-31T04:59:06;12.40;;;5.18;;
64061;SDS011;50308;47.438;-1.528;2023-07-31T05:01:32;11.75;;;4.40;;
64061;SDS011;50308;47.438;-1.528;2023-07-31T05:03:58;12.48;;;4.93;;
64061;SDS011;50308;47.438;-1.528;2023-07-31T05:06:23;10.77;;;4.38;;
64061;SDS011;50308;47.438;-1.528;2023-07-31T05:08:49;12.45;;;5.07;;
64061;SDS011;50308;47.438;-1.528;2023-07-31T05:11:14;9.35;;;4.50;;
64061;SDS011;50308;47.438;-1.528;2023-07-31T05:13:40;10.88;;;4.65;;
64061;SDS011;50308;47.438;-1.528;2023-07-31T05:16:06;9.88;;;4.60;;
64061;SDS011;50308;47.438;-1.528;2023-07-31T05:18:31;9.07;;;4.40;;
64061;SDS011;50308;47.438;-1.528;2023-07-31T05:20:57;14.23;;;4.90;;
64061;SDS011;50308;47.438;-1.528;2023-07-31T05:23:23;10.15;;;4.38;;
64061;SDS011;50308;47.438;-1.528;2023-07-31T05:25:48;10.85;;;5.20;;
64061;SDS011;50308;47.438;-1.528;2023-07-31T05:28:14;12.15;;;4.35;;
64061;SDS011;50308;47.438;-1.528;2023-07-31T05:30:39;10.90;;;4.40;;
64061;SDS011;50308;47.438;-1.528;2023-07-31T05:33:05;14.93;;;4.90;;
64061;SDS011;50308;47.438;-1.528;2023-07-31T05:35:31;10.30;;;4.70;;
64061;SDS011;50308;47.438;-1.528;2023-07-31T05:37:56;8.77;;;4.10;;
64061;SDS011;50308;47.438;-1.528;2023-07-31T05:40:22;11.93;;;4.32;;
64061;SDS011;50308;47.438;-1.528;2023-07-31T05:42:48;11.98;;;4.72;;
64061;SDS011;50308;47.438;-1.528;2023-07-31T05:45:13;12.30;;;4.35;;
64061;SDS011;50308;47.438;-1.528;2023-07-31T05:47:39;12.55;;;4.90;;
64061;SDS011;50308;47.438;-1.528;2023-07-31T05:50:05;11.60;;;4.15;;
64061;SDS011;50308;47.438;-1.528;2023-07-31T05:52:31;9.73;;;3.80;;
64061;SDS011;50308;47.438;-1.528;2023-07-31T05:54:57;12.50;;;4.20;;
64061;SDS011;50308;47.438;-1.528;2023-07-31T05:57:22;8.57;;;4.15;;
64061;SDS011;50308;47.438;-1.528;2023-07-31T05:59:48;12.95;;;4.70;;
64061;SDS011;50308;47.438;-1.528;2023-07-31T06:02:14;11.75;;;4.43;;
64061;SDS011;50308;47.438;-1.528;2023-07-31T06:04:39;10.50;;;4.15;;
64061;SDS011;50308;47.438;-1.528;2023-07-31T06:07:05;12.75;;;4.35;;
64061;SDS011;50308;47.438;-1.528;2023-07-31T06:09:31;10.57;;;4.50;;
64061;SDS011;50308;47.438;-1.528;2023-07-31T06:11:56;10.32;;;4.22;;
64061;SDS011;50308;47.438;-1.528;2023-07-31T06:14:22;11.77;;;4.07;;
64061;SDS011;50308;47.438;-1.528;2023-07-31T06:16:48;14.43;;;4.28;;
64061;SDS011;50308;47.438;-1.528;2023-07-31T06:19:13;9.23;;;4.47;;
64061;SDS011;50308;47.438;-1.528;2023-07-31T06:21:39;10.13;;;4.38;;
64061;SDS011;50308;47.438;-1.528;2023-07-31T06:24:07;13.50;;;4.05;;
64061;SDS011;50308;47.438;-1.528;2023-07-31T06:26:32;10.60;;;5.03;;
64061;SDS011;50308;47.438;-1.528;2023-07-31T06:28:58;12.85;;;4.57;;
64061;SDS011;50308;47.438;-1.528;2023-07-31T06:31:24;9.43;;;4.20;;
64061;SDS011;50308;47.438;-1.528;2023-07-31T06:33:50;8.27;;;3.90;;
64061;SDS011;50308;47.438;-1.528;2023-07-31T06:36:16;8.60;;;4.07;;
64061;SDS011;50308;47.438;-1.528;2023-07-31T06:38:42;11.13;;;4.63;;
64061;SDS011;50308;47.438;-1.528;2023-07-31T06:41:08;11.95;;;4.38;;
64061;SDS011;50308;47.438;-1.528;2023-07-31T06:43:35;11.57;;;4.05;;
64061;SDS011;50308;47.438;-1.528;2023-07-31T06:46:07;7.95;;;4.55;;
64061;SDS011;50308;47.438;-1.528;2023-07-31T06:48:34;13.07;;;4.50;;
64061;SDS011;50308;47.438;-1.528;2023-07-31T06:51:00;11.55;;;4.38;;
64061;SDS011;50308;47.438;-1.528;2023-07-31T06:53:26;10.90;;;5.00;;
64061;SDS011;50308;47.438;-1.528;2023-07-31T06:55:51;10.63;;;4.38;;
64061;SDS011;50308;47.438;-1.528;2023-07-31T06:58:17;11.13;;;4.35;;
64061;SDS011;50308;47.438;-1.528;2023-07-31T07:00:43;11.30;;;4.70;;
64061;SDS011;50308;47.438;-1.528;2023-07-31T07:03:08;12.73;;;4.35;;
64061;SDS011;50308;47.438;-1.528;2023-07-31T07:05:34;10.15;;;4.22;;
64061;SDS011;50308;47.438;-1.528;2023-07-31T07:08:00;9.95;;;4.50;;
64061;SDS011;50308;47.438;-1.528;2023-07-31T07:10:25;9.75;;;3.50;;
64061;SDS011;50308;47.438;-1.528;2023-07-31T07:12:51;12.70;;;4.25;;
64061;SDS011;50308;47.438;-1.528;2023-07-31T07:15:17;13.45;;;4.30;;
64061;SDS011;50308;47.438;-1.528;2023-07-31T07:17:43;8.55;;;3.55;;
64061;SDS011;50308;47.438;-1.528;2023-07-31T07:20:09;10.38;;;4.20;;
64061;SDS011;50308;47.438;-1.528;2023-07-31T07:22:34;8.15;;;3.40;;
64061;SDS011;50308;47.438;-1.528;2023-07-31T07:25:00;10.38;;;3.92;;
64061;SDS011;50308;47.438;-1.528;2023-07-31T07:27:26;11.70;;;4.80;;
64061;SDS011;50308;47.438;-1.528;2023-07-31T07:29:52;8.50;;;4.30;;
64061;SDS011;50308;47.438;-1.528;2023-07-31T07:32:18;9.38;;;4.18;;
64061;SDS011;50308;47.438;-1.528;2023-07-31T07:34:44;9.52;;;3.60;;
64061;SDS011;50308;47.438;-1.528;2023-07-31T07:37:09;12.38;;;4.35;;
64061;SDS011;50308;47.438;-1.528;2023-07-31T07:39:35;12.32;;;3.83;;
64061;SDS011;50308;47.438;-1.528;2023-07-31T07:42:01;9.82;;;3.60;;
64061;SDS011;50308;47.438;-1.528;2023-07-31T07:44:26;12.40;;;3.83;;
64061;SDS011;50308;47.438;-1.528;2023-07-31T07:46:52;7.45;;;3.50;;
64061;SDS011;50308;47.438;-1.528;2023-07-31T07:49:17;11.68;;;3.50;;
64061;SDS011;50308;47.438;-1.528;2023-07-31T07:51:43;9.95;;;3.83;;
64061;SDS011;50308;47.438;-1.528;2023-07-31T07:54:09;8.30;;;3.25;;
64061;SDS011;50308;47.438;-1.528;2023-07-31T07:56:34;8.50;;;3.20;;
64061;SDS011;50308;47.438;-1.528;2023-07-31T07:59:01;9.80;;;3.55;;
64061;SDS011;50308;47.438;-1.528;2023-07-31T08:01:27;9.95;;;3.28;;
64061;SDS011;50308;47.438;-1.528;2023-07-31T08:03:52;8.02;;;3.13;;
64061;SDS011;50308;47.438;-1.528;2023-07-31T08:06:18;14.07;;;4.13;;
64061;SDS011;50308;47.438;-1.528;2023-07-31T08:08:44;7.47;;;3.30;;
64061;SDS011;50308;47.438;-1.528;2023-07-31T08:11:09;8.57;;;3.67;;
64061;SDS011;50308;47.438;-1.528;2023-07-31T08:13:35;9.38;;;3.10;;
64061;SDS011;50308;47.438;-1.528;2023-07-31T08:16:02;7.05;;;3.10;;
64061;SDS011;50308;47.438;-1.528;2023-07-31T08:18:28;10.88;;;3.63;;
64061;SDS011;50308;47.438;-1.528;2023-07-31T08:20:55;8.68;;;3.40;;
64061;SDS011;50308;47.438;-1.528;2023-07-31T08:23:21;9.15;;;4.03;;
64061;SDS011;50308;47.438;-1.528;2023-07-31T08:25:46;11.55;;;3.63;;
64061;SDS011;50308;47.438;-1.528;2023-07-31T08:28:14;8.32;;;3.42;;
64061;SDS011;50308;47.438;-1.528;2023-07-31T08:30:40;5.82;;;3.00;;
64061;SDS011;50308;47.438;-1.528;2023-07-31T08:33:07;7.60;;;3.10;;
64061;SDS011;50308;47.438;-1.528;2023-07-31T08:35:32;8.07;;;3.00;;
64061;SDS011;50308;47.438;-1.528;2023-07-31T08:37:58;6.95;;;3.42;;
64061;SDS011;50308;47.438;-1.528;2023-07-31T08:40:24;7.10;;;3.08;;
64061;SDS011;50308;47.438;-1.528;2023-07-31T08:42:51;6.68;;;2.95;;
64061;SDS011;50308;47.438;-1.528;2023-07-31T08:45:18;9.55;;;4.00;;
64061;SDS011;50308;47.438;-1.528;2023-07-31T08:47:46;6.05;;;2.88;;
64061;SDS011;50308;47.438;-1.528;2023-07-31T08:50:14;6.43;;;3.40;;
64061;SDS011;50308;47.438;-1.528;2023-07-31T08:52:44;7.80;;;3.20;;
64061;SDS011;50308;47.438;-1.528;2023-07-31T08:55:10;10.07;;;4.13;;
64061;SDS011;50308;47.438;-1.528;2023-07-31T08:57:37;7.85;;;3.13;;
64061;SDS011;50308;47.438;-1.528;2023-07-31T09:00:04;7.10;;;3.20;;
64061;SDS011;50308;47.438;-1.528;2023-07-31T09:02:36;7.28;;;2.90;;
64061;SDS011;50308;47.438;-1.528;2023-07-31T09:05:06;6.10;;;2.80;;
64061;SDS011;50308;47.438;-1.528;2023-07-31T09:07:36;9.00;;;3.53;;
64061;SDS011;50308;47.438;-1.528;2023-07-31T09:10:03;8.05;;;3.00;;
64061;SDS011;50308;47.438;-1.528;2023-07-31T09:12:29;7.28;;;3.03;;
64061;SDS011;50308;47.438;-1.528;2023-07-31T09:14:56;5.90;;;2.80;;
64061;SDS011;50308;47.438;-1.528;2023-07-31T09:17:32;8.38;;;2.70;;
64061;SDS011;50308;47.438;-1.528;2023-07-31T09:23:04;9.68;;;2.90;;
64061;SDS011;50308;47.438;-1.528;2023-07-31T09:25:32;6.05;;;2.75;;
64061;SDS011;50308;47.438;-1.528;2023-07-31T09:27:58;8.27;;;2.85;;
64061;SDS011;50308;47.438;-1.528;2023-07-31T09:30:25;6.28;;;2.75;;
64061;SDS011;50308;47.438;-1.528;2023-07-31T09:33:00;6.80;;;3.22;;
64061;SDS011;50308;47.438;-1.528;2023-07-31T09:35:31;6.30;;;2.70;;
64061;SDS011;50308;47.438;-1.528;2023-07-31T09:38:08;4.40;;;2.28;;
64061;SDS011;50308;47.438;-1.528;2023-07-31T09:40:37;9.55;;;3.35;;
64061;SDS011;50308;47.438;-1.528;2023-07-31T09:43:09;8.30;;;2.80;;
64061;SDS011;50308;47.438;-1.528;2023-07-31T09:45:36;8.50;;;2.97;;
64061;SDS011;50308;47.438;-1.528;2023-07-31T09:48:06;6.82;;;2.88;;
64061;SDS011;50308;47.438;-1.528;2023-07-31T09:50:39;8.75;;;2.72;;
64061;SDS011;50308;47.438;-1.528;2023-07-31T09:53:07;7.53;;;2.42;;
64061;SDS011;50308;47.438;-1.528;2023-07-31T09:55:33;8.40;;;2.95;;
64061;SDS011;50308;47.438;-1.528;2023-07-31T09:58:01;5.68;;;2.63;;
64061;SDS011;50308;47.438;-1.528;2023-07-31T10:00:29;5.72;;;2.75;;
64061;SDS011;50308;47.438;-1.528;2023-07-31T10:02:58;6.57;;;3.08;;
64061;SDS011;50308;47.438;-1.528;2023-07-31T10:05:27;7.75;;;3.15;;
64061;SDS011;50308;47.438;-1.528;2023-07-31T10:07:59;9.10;;;3.15;;
64061;SDS011;50308;47.438;-1.528;2023-07-31T10:10:25;7.47;;;3.03;;
64061;SDS011;50308;47.438;-1.528;2023-07-31T10:12:52;6.32;;;3.25;;
64061;SDS011;50308;47.438;-1.528;2023-07-31T10:15:19;10.18;;;3.47;;
64061;SDS011;50308;47.438;-1.528;2023-07-31T10:17:48;5.75;;;2.53;;
64061;SDS011;50308;47.438;-1.528;2023-07-31T10:20:15;6.80;;;3.08;;
64061;SDS011;50308;47.438;-1.528;2023-07-31T10:22:42;6.07;;;2.75;;
64061;SDS011;50308;47.438;-1.528;2023-07-31T10:25:11;10.83;;;3.13;;
64061;SDS011;50308;47.438;-1.528;2023-07-31T10:27:38;5.45;;;2.70;;
64061;SDS011;50308;47.438;-1.528;2023-07-31T10:30:04;6.50;;;3.15;;
64061;SDS011;50308;47.438;-1.528;2023-07-31T10:32:32;5.00;;;2.85;;
64061;SDS011;50308;47.438;-1.528;2023-07-31T10:35:00;9.75;;;3.40;;
64061;SDS011;50308;47.438;-1.528;2023-07-31T10:37:36;10.50;;;3.15;;
64061;SDS011;50308;47.438;-1.528;2023-07-31T10:40:09;7.60;;;3.38;;
64061;SDS011;50308;47.438;-1.528;2023-07-31T10:45:23;5.93;;;2.97;;
64061;SDS011;50308;47.438;-1.528;2023-07-31T10:48:02;10.07;;;3.33;;
64061;SDS011;50308;47.438;-1.528;2023-07-31T10:50:30;8.68;;;3.60;;
64061;SDS011;50308;47.438;-1.528;2023-07-31T10:52:59;6.55;;;3.08;;
64061;SDS011;50308;47.438;-1.528;2023-07-31T10:57:53;8.57;;;2.88;;
64061;SDS011;50308;47.438;-1.528;2023-07-31T11:00:22;9.73;;;3.08;;
64061;SDS011;50308;47.438;-1.528;2023-07-31T11:02:58;8.65;;;3.15;;
64061;SDS011;50308;47.438;-1.528;2023-07-31T11:05:44;10.20;;;3.95;;
64061;SDS011;50308;47.438;-1.528;2023-07-31T11:10:50;8.20;;;3.30;;
64061;SDS011;50308;47.438;-1.528;2023-07-31T11:13:29;9.20;;;3.22;;
64061;SDS011;50308;47.438;-1.528;2023-07-31T11:15:59;10.90;;;3.38;;
64061;SDS011;50308;47.438;-1.528;2023-07-31T11:18:26;7.97;;;4.00;;
64061;SDS011;50308;47.438;-1.528;2023-07-31T11:20:52;10.93;;;3.70;;
64061;SDS011;50308;47.438;-1.528;2023-07-31T11:23:18;10.43;;;3.45;;
64061;SDS011;50308;47.438;-1.528;2023-07-31T11:25:45;6.90;;;3.40;;
64061;SDS011;50308;47.438;-1.528;2023-07-31T11:28:12;8.15;;;3.45;;
64061;SDS011;50308;47.438;-1.528;2023-07-31T11:30:42;11.77;;;3.92;;
64061;SDS011;50308;47.438;-1.528;2023-07-31T11:33:09;10.68;;;3.17;;
64061;SDS011;50308;47.438;-1.528;2023-07-31T11:35:40;8.77;;;3.22;;
64061;SDS011;50308;47.438;-1.528;2023-07-31T11:38:09;7.90;;;3.80;;
64061;SDS011;50308;47.438;-1.528;2023-07-31T11:40:49;9.82;;;3.78;;
64061;SDS011;50308;47.438;-1.528;2023-07-31T11:43:15;11.80;;;3.92;;
64061;SDS011;50308;47.438;-1.528;2023-07-31T11:46:16;10.95;;;3.83;;
64061;SDS011;50308;47.438;-1.528;2023-07-31T11:48:36;6.65;;;2.92;;
64061;SDS011;50308;47.438;-1.528;2023-07-31T11:51:06;8.85;;;3.33;;
64061;SDS011;50308;47.438;-1.528;2023-07-31T11:56:08;8.93;;;3.13;;
64061;SDS011;50308;47.438;-1.528;2023-07-31T11:58:36;7.80;;;3.25;;
64061;SDS011;50308;47.438;-1.528;2023-07-31T12:01:04;6.60;;;2.80;;
64061;SDS011;50308;47.438;-1.528;2023-07-31T12:03:31;7.22;;;3.00;;
64061;SDS011;50308;47.438;-1.528;2023-07-31T12:05:58;8.27;;;3.10;;
64061;SDS011;50308;47.438;-1.528;2023-07-31T12:08:24;7.72;;;3.30;;
64061;SDS011;50308;47.438;-1.528;2023-07-31T12:10:51;6.05;;;3.15;;
64061;SDS011;50308;47.438;-1.528;2023-07-31T12:13:24;8.20;;;2.85;;
64061;SDS011;50308;47.438;-1.528;2023-07-31T12:15:54;10.00;;;3.20;;
64061;SDS011;50308;47.438;-1.528;2023-07-31T12:18:22;7.63;;;2.90;;
64061;SDS011;50308;47.438;-1.528;2023-07-31T12:20:53;5.60;;;2.60;;
64061;SDS011;50308;47.438;-1.528;2023-07-31T12:23:27;6.63;;;2.72;;
64061;SDS011;50308;47.438;-1.528;2023-07-31T12:26:04;7.18;;;2.88;;
64061;SDS011;50308;47.438;-1.528;2023-07-31T12:28:30;9.15;;;3.22;;
64061;SDS011;50308;47.438;-1.528;2023-07-31T12:31:00;8.68;;;3.00;;
64061;SDS011;50308;47.438;-1.528;2023-07-31T12:33:32;4.15;;;2.38;;
64061;SDS011;50308;47.438;-1.528;2023-07-31T12:36:00;7.43;;;2.85;;
64061;SDS011;50308;47.438;-1.528;2023-07-31T12:38:28;6.13;;;2.72;;
64061;SDS011;50308;47.438;-1.528;2023-07-31T12:40:54;9.23;;;3.08;;
64061;SDS011;50308;47.438;-1.528;2023-07-31T12:43:20;6.25;;;3.00;;
64061;SDS011;50308;47.438;-1.528;2023-07-31T12:45:45;7.28;;;3.03;;
64061;SDS011;50308;47.438;-1.528;2023-07-31T12:48:12;7.93;;;3.05;;
64061;SDS011;50308;47.438;-1.528;2023-07-31T12:50:38;5.97;;;3.03;;
64061;SDS011;50308;47.438;-1.528;2023-07-31T12:53:04;8.18;;;3.58;;
64061;SDS011;50308;47.438;-1.528;2023-07-31T12:55:30;8.77;;;3.45;;
64061;SDS011;50308;47.438;-1.528;2023-07-31T12:57:57;8.90;;;3.65;;
64061;SDS011;50308;47.438;-1.528;2023-07-31T13:00:23;8.48;;;3.30;;
64061;SDS011;50308;47.438;-1.528;2023-07-31T13:02:50;8.25;;;3.50;;
64061;SDS011;50308;47.438;-1.528;2023-07-31T13:05:16;10.80;;;4.20;;
64061;SDS011;50308;47.438;-1.528;2023-07-31T13:07:42;13.43;;;4.30;;
64061;SDS011;50308;47.438;-1.528;2023-07-31T13:10:08;11.00;;;3.35;;
64061;SDS011;50308;47.438;-1.528;2023-07-31T13:12:34;9.23;;;3.65;;
64061;SDS011;50308;47.438;-1.528;2023-07-31T13:14:59;9.13;;;3.60;;
64061;SDS011;50308;47.438;-1.528;2023-07-31T13:17:25;10.60;;;5.70;;
64061;SDS011;50308;47.438;-1.528;2023-07-31T13:19:51;7.50;;;3.33;;
64061;SDS011;50308;47.438;-1.528;2023-07-31T13:22:17;9.07;;;3.08;;
64061;SDS011;50308;47.438;-1.528;2023-07-31T13:24:43;12.13;;;3.67;;
64061;SDS011;50308;47.438;-1.528;2023-07-31T13:27:08;8.77;;;3.30;;
64061;SDS011;50308;47.438;-1.528;2023-07-31T13:29:34;11.43;;;3.80;;
64061;SDS011;50308;47.438;-1.528;2023-07-31T13:32:00;9.35;;;4.10;;
64061;SDS011;50308;47.438;-1.528;2023-07-31T13:34:25;16.40;;;4.25;;
64061;SDS011;50308;47.438;-1.528;2023-07-31T13:36:51;12.88;;;4.70;;
64061;SDS011;50308;47.438;-1.528;2023-07-31T13:39:18;11.02;;;4.68;;
64061;SDS011;50308;47.438;-1.528;2023-07-31T13:41:44;11.32;;;4.88;;
64061;SDS011;50308;47.438;-1.528;2023-07-31T13:44:09;12.18;;;3.97;;
64061;SDS011;50308;47.438;-1.528;2023-07-31T13:46:35;14.43;;;4.63;;
64061;SDS011;50308;47.438;-1.528;2023-07-31T13:49:01;15.38;;;4.57;;
64061;SDS011;50308;47.438;-1.528;2023-07-31T13:51:26;15.00;;;4.65;;
64061;SDS011;50308;47.438;-1.528;2023-07-31T13:53:53;15.25;;;4.82;;
64061;SDS011;50308;47.438;-1.528;2023-07-31T13:56:19;9.73;;;4.32;;
64061;SDS011;50308;47.438;-1.528;2023-07-31T13:58:44;15.85;;;4.68;;
64061;SDS011;50308;47.438;-1.528;2023-07-31T14:01:10;16.20;;;5.57;;
64061;SDS011;50308;47.438;-1.528;2023-07-31T14:03:36;13.43;;;4.70;;
64061;SDS011;50308;47.438;-1.528;2023-07-31T14:06:01;14.05;;;4.80;;
64061;SDS011;50308;47.438;-1.528;2023-07-31T14:08:27;13.57;;;4.85;;
64061;SDS011;50308;47.438;-1.528;2023-07-31T14:10:54;15.98;;;5.35;;
64061;SDS011;50308;47.438;-1.528;2023-07-31T14:13:20;16.00;;;5.07;;
64061;SDS011;50308;47.438;-1.528;2023-07-31T14:15:46;17.45;;;5.32;;
64061;SDS011;50308;47.438;-1.528;2023-07-31T14:18:11;12.13;;;5.18;;
64061;SDS011;50308;47.438;-1.528;2023-07-31T14:20:37;20.65;;;6.45;;
64061;SDS011;50308;47.438;-1.528;2023-07-31T14:23:03;13.73;;;4.93;;
64061;SDS011;50308;47.438;-1.528;2023-07-31T14:25:28;11.52;;;5.10;;
64061;SDS011;50308;47.438;-1.528;2023-07-31T14:27:54;14.45;;;5.72;;
64061;SDS011;50308;47.438;-1.528;2023-07-31T14:30:20;15.65;;;5.00;;
64061;SDS011;50308;47.438;-1.528;2023-07-31T14:32:46;14.43;;;5.28;;
64061;SDS011;50308;47.438;-1.528;2023-07-31T14:35:12;16.50;;;5.68;;
64061;SDS011;50308;47.438;-1.528;2023-07-31T14:37:38;19.73;;;5.72;;
64061;SDS011;50308;47.438;-1.528;2023-07-31T14:40:05;13.23;;;5.60;;
64061;SDS011;50308;47.438;-1.528;2023-07-31T14:42:32;13.52;;;5.53;;